createdAt,value
2023-04-10T00:00:37.948Z,5.82
2023-04-10T00:03:05.409Z,6.13
2023-04-10T00:05:32.821Z,5.45
2023-04-10T00:07:59.809Z,5.13
2023-04-10T00:10:29.229Z,6.03
2023-04-10T00:12:56.404Z,5.82
2023-04-10T00:15:23.504Z,6.15
2023-04-10T00:17:54.802Z,6.05
2023-04-10T00:20:23.125Z,5.72
2023-04-10T00:22:50.282Z,5.80
2023-04-10T00:25:17.470Z,5.47
2023-04-10T00:27:44.419Z,5.70
2023-04-10T00:30:11.553Z,5.43
2023-04-10T00:32:38.731Z,5.53
2023-04-10T00:35:06.982Z,5.43
2023-04-10T00:37:33.884Z,5.60
2023-04-10T00:40:01.057Z,5.65
2023-04-10T00:42:28.073Z,5.95
2023-04-10T00:44:55.009Z,5.15
2023-04-10T00:47:22.329Z,5.50
2023-04-10T00:49:49.470Z,5.75
2023-04-10T00:52:16.541Z,6.10
2023-04-10T00:54:43.511Z,5.97
2023-04-10T00:57:11.039Z,5.15
2023-04-10T00:59:39.152Z,5.60
2023-04-10T01:02:06.189Z,5.63
2023-04-10T01:04:34.303Z,5.57
2023-04-10T01:07:39.786Z,5.97
2023-04-10T01:10:29.426Z,5.57
2023-04-10T01:13:05.610Z,5.13
2023-04-10T01:15:49.396Z,4.82
2023-04-10T01:18:36.870Z,5.53
2023-04-10T01:21:09.176Z,5.20
2023-04-10T01:23:54.499Z,5.32
2023-04-10T01:26:51.956Z,5.30
2023-04-10T01:29:21.043Z,5.28
2023-04-10T01:31:58.193Z,5.15
2023-04-10T01:34:33.419Z,5.28
2023-04-10T01:37:04.750Z,5.45
2023-04-10T01:39:39.307Z,5.15
2023-04-10T01:42:09.041Z,5.28
2023-04-10T01:44:44.087Z,5.03
2023-04-10T01:47:14.161Z,5.13
2023-04-10T01:49:44.553Z,5.17
2023-04-10T01:52:16.533Z,5.15
2023-04-10T01:54:48.993Z,4.85
2023-04-10T01:57:22.879Z,5.20
2023-04-10T01:59:53.505Z,5.63
2023-04-10T02:02:20.582Z,4.88
2023-04-10T02:04:51.524Z,5.13
2023-04-10T02:07:31.463Z,5.15
2023-04-10T02:10:19.133Z,5.57
2023-04-10T02:12:56.484Z,5.05
2023-04-10T02:15:26.584Z,5.18
2023-04-10T02:17:56.401Z,5.13
2023-04-10T02:20:24.430Z,5.20
2023-04-10T02:22:53.143Z,4.95
2023-04-10T02:25:20.457Z,5.32
2023-04-10T02:27:49.109Z,5.43
2023-04-10T02:30:17.920Z,5.28
2023-04-10T02:32:45.029Z,5.45
2023-04-10T02:35:12.147Z,5.55
2023-04-10T02:37:39.219Z,5.22
2023-04-10T02:40:08.361Z,6.07
2023-04-10T02:42:44.771Z,4.85
2023-04-10T02:45:11.819Z,5.05
2023-04-10T02:47:42.463Z,4.97
2023-04-10T02:50:10.601Z,5.30
2023-04-10T02:52:40.527Z,5.40
2023-04-10T02:55:07.774Z,5.00
2023-04-10T02:57:37.296Z,5.03
2023-04-10T03:00:05.305Z,5.30
2023-04-10T03:02:53.746Z,5.15
2023-04-10T03:05:21.515Z,5.78
2023-04-10T03:07:48.569Z,5.68
2023-04-10T03:10:15.791Z,5.78
2023-04-10T03:12:42.724Z,5.82
2023-04-10T03:15:10.146Z,5.53
2023-04-10T03:17:37.089Z,5.60
2023-04-10T03:20:06.896Z,5.90
2023-04-10T03:22:34.615Z,5.72
2023-04-10T03:25:01.567Z,5.32
2023-04-10T03:27:32.147Z,6.20
2023-04-10T03:29:59.160Z,5.75
2023-04-10T03:32:28.030Z,5.47
2023-04-10T03:34:55.065Z,5.45
2023-04-10T03:37:22.050Z,5.28
2023-04-10T03:39:48.966Z,6.05
2023-04-10T03:42:15.920Z,6.00
2023-04-10T03:44:42.981Z,5.93
2023-04-10T03:47:10.431Z,5.80
2023-04-10T03:49:37.430Z,6.20
2023-04-10T03:52:06.761Z,5.68
2023-04-10T03:54:33.777Z,6.50
2023-04-10T03:57:01.547Z,6.15
2023-04-10T03:59:37.779Z,5.30
2023-04-10T04:02:08.002Z,6.43
2023-04-10T04:04:35.601Z,5.75
2023-04-10T04:07:20.117Z,6.25
2023-04-10T04:10:14.204Z,5.88
2023-04-10T04:12:52.173Z,5.47
2023-04-10T04:15:26.074Z,6.05
2023-04-10T04:17:58.313Z,5.50
2023-04-10T04:20:35.640Z,5.43
2023-04-10T04:23:20.301Z,6.05
2023-04-10T04:26:06.794Z,5.65
2023-04-10T04:28:52.081Z,5.30
2023-04-10T04:31:32.188Z,5.75
2023-04-10T04:34:08.035Z,5.47
2023-04-10T04:37:05.539Z,6.07
2023-04-10T04:39:38.776Z,5.90
2023-04-10T04:42:16.504Z,5.45
2023-04-10T04:45:02.144Z,5.75
2023-04-10T04:47:48.105Z,5.85
2023-04-10T04:50:19.963Z,5.30
2023-04-10T04:52:55.883Z,5.38
2023-04-10T04:55:34.237Z,5.45
2023-04-10T04:58:24.639Z,5.60
2023-04-10T05:01:01.847Z,5.65
2023-04-10T05:03:51.684Z,5.72
2023-04-10T05:06:55.160Z,6.00
2023-04-10T05:09:48.201Z,5.38
2023-04-10T05:12:34.233Z,5.60
2023-04-10T05:15:18.161Z,6.13
2023-04-10T05:18:02.456Z,5.45
2023-04-10T05:20:48.157Z,6.22
2023-04-10T05:23:25.256Z,6.20
2023-04-10T05:25:54.779Z,5.90
2023-04-10T05:28:42.007Z,5.85
2023-04-10T05:31:27.446Z,5.80
2023-04-10T05:34:00.604Z,6.15
2023-04-10T05:36:51.265Z,5.07
2023-04-10T05:39:22.843Z,5.40
2023-04-10T05:42:13.440Z,6.13
2023-04-10T05:47:52.899Z,4.35
2023-04-10T05:50:38.584Z,5.22
2023-04-10T05:53:31.242Z,6.10
2023-04-10T05:56:26.212Z,5.55
2023-04-10T05:59:28.487Z,5.72
2023-04-10T06:02:14.044Z,5.65
2023-04-10T06:04:41.150Z,5.60
2023-04-10T06:07:08.262Z,5.78
2023-04-10T06:09:35.318Z,6.63
2023-04-10T06:12:07.259Z,5.78
2023-04-10T06:14:35.550Z,6.30
2023-04-10T06:17:03.084Z,5.85
2023-04-10T06:19:30.731Z,6.28
2023-04-10T06:21:57.681Z,5.55
2023-04-10T06:24:24.712Z,6.15
2023-04-10T06:26:52.167Z,5.80
2023-04-10T06:29:19.178Z,6.18
2023-04-10T06:31:46.397Z,6.10
2023-04-10T06:34:13.865Z,6.28
2023-04-10T06:36:50.572Z,6.20
2023-04-10T06:39:17.810Z,6.22
2023-04-10T06:41:44.819Z,5.88
2023-04-10T06:44:23.754Z,5.97
2023-04-10T06:46:50.763Z,5.93
2023-04-10T06:49:17.748Z,6.28
2023-04-10T06:51:46.064Z,5.97
2023-04-10T06:54:13.002Z,5.95
2023-04-10T06:56:39.960Z,6.05
2023-04-10T06:59:06.861Z,6.65
2023-04-10T07:01:33.838Z,6.20
2023-04-10T07:04:01.107Z,6.50
2023-04-10T07:06:28.908Z,6.10
2023-04-10T07:08:56.123Z,6.68
2023-04-10T07:11:23.130Z,5.78
2023-04-10T07:13:53.748Z,5.63
2023-04-10T07:16:20.934Z,6.13
2023-04-10T07:18:47.872Z,5.85
2023-04-10T07:21:14.780Z,6.35
2023-04-10T07:23:42.216Z,5.95
2023-04-10T07:26:09.240Z,5.32
2023-04-10T07:28:36.622Z,6.00
2023-04-10T07:31:03.799Z,5.68
2023-04-10T07:33:30.980Z,5.78
2023-04-10T07:35:58.336Z,6.32
2023-04-10T07:38:25.555Z,5.05
2023-04-10T07:40:59.428Z,5.55
2023-04-10T07:43:26.529Z,5.35
2023-04-10T07:45:53.523Z,4.82
2023-04-10T07:48:20.577Z,6.25
2023-04-10T07:50:47.563Z,5.90
2023-04-10T07:53:14.771Z,5.97
2023-04-10T07:55:46.068Z,5.72
2023-04-10T07:58:13.013Z,6.10
2023-04-10T08:00:39.974Z,5.82
2023-04-10T08:03:07.326Z,5.85
2023-04-10T08:05:34.544Z,5.60
2023-04-10T08:08:01.528Z,6.28
2023-04-10T08:10:28.508Z,6.38
2023-04-10T08:12:55.659Z,4.95
2023-04-10T08:15:22.746Z,5.60
2023-04-10T08:17:49.955Z,6.07
2023-04-10T08:20:16.944Z,5.43
2023-04-10T08:22:43.919Z,5.47
2023-04-10T08:25:10.874Z,5.30
2023-04-10T08:27:38.093Z,5.57
2023-04-10T08:30:05.789Z,4.88
2023-04-10T08:32:32.846Z,5.40
2023-04-10T08:34:59.829Z,5.05
2023-04-10T08:37:26.939Z,4.50
2023-04-10T08:39:53.963Z,4.45
2023-04-10T08:42:22.223Z,4.93
2023-04-10T08:44:50.232Z,4.03
2023-04-10T08:47:21.621Z,4.35
2023-04-10T08:49:56.059Z,4.32
2023-04-10T08:52:29.506Z,4.20
2023-04-10T08:54:59.628Z,4.55
2023-04-10T08:57:27.988Z,4.03
2023-04-10T08:59:55.549Z,3.97
2023-04-10T09:04:55.218Z,4.05
2023-04-10T09:07:23.368Z,4.22
2023-04-10T09:09:50.397Z,4.32
2023-04-10T09:12:17.421Z,4.07
2023-04-10T09:14:44.385Z,3.90
2023-04-10T09:17:24.009Z,3.42
2023-04-10T09:19:56.256Z,4.05
2023-04-10T09:22:35.362Z,3.38
2023-04-10T09:25:04.245Z,3.78
2023-04-10T09:27:37.221Z,3.17
2023-04-10T09:30:07.030Z,3.35
2023-04-10T09:32:43.952Z,3.22
2023-04-10T09:35:13.646Z,3.33
2023-04-10T09:37:45.815Z,3.22
2023-04-10T09:40:26.146Z,3.15
2023-04-10T09:42:55.919Z,3.63
2023-04-10T09:45:23.042Z,3.10
2023-04-10T09:48:08.048Z,2.75
2023-04-10T09:50:39.911Z,3.15
2023-04-10T09:53:16.404Z,3.13
2023-04-10T09:55:44.095Z,3.20
2023-04-10T09:58:11.781Z,3.45
2023-04-10T10:00:47.837Z,3.55
2023-04-10T10:03:23.012Z,3.42
2023-04-10T10:05:51.629Z,3.50
2023-04-10T10:08:18.877Z,3.50
2023-04-10T10:10:54.005Z,3.13
2023-04-10T10:13:53.960Z,3.47
2023-04-10T10:16:46.812Z,3.10
2023-04-10T10:20:02.848Z,3.08
2023-04-10T10:22:30.451Z,3.10
2023-04-10T10:25:00.582Z,3.22
2023-04-10T10:27:31.964Z,3.10
2023-04-10T10:30:05.489Z,2.80
2023-04-10T10:32:41.170Z,2.95
2023-04-10T10:35:09.131Z,3.03
2023-04-10T10:37:37.519Z,2.70
2023-04-10T10:40:19.432Z,2.33
2023-04-10T10:43:12.195Z,2.55
2023-04-10T10:46:35.620Z,2.70
2023-04-10T10:49:02.593Z,2.28
2023-04-10T10:51:51.742Z,2.17
2023-04-10T10:54:36.585Z,2.08
2023-04-10T10:57:49.718Z,2.10
2023-04-10T11:00:16.977Z,2.30
2023-04-10T11:02:44.323Z,2.30
2023-04-10T11:05:31.945Z,2.40
2023-04-10T11:07:58.836Z,2.97
2023-04-10T11:11:05.831Z,2.35
2023-04-10T11:13:41.482Z,1.98
2023-04-10T11:16:10.757Z,1.95
2023-04-10T11:18:51.260Z,2.40
2023-04-10T11:21:23.860Z,2.25
2023-04-10T11:23:50.870Z,2.10
2023-04-10T11:26:36.731Z,2.25
2023-04-10T11:29:31.390Z,2.20
2023-04-10T11:32:08.047Z,1.92
2023-04-10T11:34:43.477Z,1.70
2023-04-10T11:37:10.665Z,1.95
2023-04-10T11:39:37.767Z,1.73
2023-04-10T11:42:05.717Z,2.00
2023-04-10T11:44:42.090Z,2.03
2023-04-10T11:47:12.938Z,2.20
2023-04-10T11:49:39.922Z,1.88
2023-04-10T11:52:07.030Z,2.05
2023-04-10T11:54:34.064Z,1.85
2023-04-10T11:57:04.536Z,1.98
2023-04-10T11:59:33.941Z,1.65
2023-04-10T12:02:15.851Z,1.65
2023-04-10T12:04:46.710Z,2.10
2023-04-10T12:07:13.792Z,1.70
2023-04-10T12:09:40.956Z,1.70
2023-04-10T12:12:08.515Z,1.58
2023-04-10T12:14:39.570Z,1.40
2023-04-10T12:17:09.199Z,2.00
2023-04-10T12:19:38.428Z,1.45
2023-04-10T12:22:06.749Z,1.67
2023-04-10T12:24:51.718Z,1.60
2023-04-10T12:27:27.487Z,1.50
2023-04-10T12:29:58.088Z,1.60
2023-04-10T12:32:27.069Z,1.40
2023-04-10T12:34:58.784Z,1.80
2023-04-10T12:37:47.119Z,1.80
2023-04-10T12:40:14.728Z,1.60
2023-04-10T12:42:42.483Z,1.50
2023-04-10T12:45:12.938Z,1.20
2023-04-10T12:47:46.947Z,1.30
2023-04-10T12:50:17.269Z,1.48
2023-04-10T12:53:01.052Z,1.20
2023-04-10T12:55:28.909Z,1.50
2023-04-10T12:57:56.920Z,1.40
2023-04-10T13:00:25.298Z,1.10
2023-04-10T13:02:52.532Z,1.50
2023-04-10T13:05:21.508Z,1.20
2023-04-10T13:07:52.660Z,1.02
2023-04-10T13:10:20.144Z,1.17
2023-04-10T13:12:47.369Z,1.13
2023-04-10T13:15:14.349Z,1.20
2023-04-10T13:17:41.678Z,1.10
2023-04-10T13:20:10.728Z,1.27
2023-04-10T13:22:37.734Z,1.10
2023-04-10T13:25:05.600Z,1.23
2023-04-10T13:27:32.620Z,1.13
2023-04-10T13:29:59.649Z,1.30
2023-04-10T13:32:26.630Z,0.82
2023-04-10T13:34:54.773Z,1.00
2023-04-10T13:37:21.757Z,1.00
2023-04-10T13:39:48.796Z,1.00
2023-04-10T13:42:15.805Z,1.10
2023-04-10T13:44:42.756Z,1.20
2023-04-10T13:47:09.813Z,1.23
2023-04-10T13:49:36.857Z,1.00
2023-04-10T13:52:03.834Z,1.27
2023-04-10T13:54:30.900Z,0.90
2023-04-10T13:56:59.321Z,1.10
2023-04-10T13:59:26.261Z,1.10
2023-04-10T14:01:53.313Z,1.08
2023-04-10T14:04:20.433Z,1.00
2023-04-10T14:06:48.004Z,1.10
2023-04-10T14:09:17.022Z,1.45
2023-04-10T14:11:43.959Z,1.20
2023-04-10T14:14:11.263Z,1.60
2023-04-10T14:16:38.232Z,1.27
2023-04-10T14:19:05.180Z,1.13
2023-04-10T14:21:32.366Z,0.88
2023-04-10T14:23:59.939Z,0.88
2023-04-10T14:26:27.122Z,1.20
2023-04-10T14:28:54.347Z,0.70
2023-04-10T14:31:21.513Z,0.75
2023-04-10T14:33:49.225Z,0.70
2023-04-10T14:36:16.308Z,0.73
2023-04-10T14:38:43.414Z,0.93
2023-04-10T14:41:10.546Z,0.90
2023-04-10T14:43:38.028Z,0.75
2023-04-10T14:46:05.259Z,0.80
2023-04-10T14:48:32.284Z,0.70
2023-04-10T14:50:59.456Z,0.93
2023-04-10T14:53:26.365Z,0.77
2023-04-10T14:55:53.303Z,0.80
2023-04-10T14:58:26.601Z,0.70
2023-04-10T15:00:53.717Z,0.60
2023-04-10T15:03:22.304Z,0.70
2023-04-10T15:05:59.975Z,0.57
2023-04-10T15:08:27.004Z,0.60
2023-04-10T15:10:54.027Z,0.75
2023-04-10T15:13:22.142Z,0.43
2023-04-10T15:15:49.605Z,0.90
2023-04-10T15:18:16.937Z,0.68
2023-04-10T15:20:44.131Z,0.80
2023-04-10T15:23:11.542Z,0.40
2023-04-10T15:25:38.489Z,0.70
2023-04-10T15:28:07.728Z,0.70
2023-04-10T15:30:34.740Z,0.88
2023-04-10T15:33:01.749Z,0.70
2023-04-10T15:35:30.371Z,0.73
2023-04-10T15:37:57.547Z,0.88
2023-04-10T15:40:24.496Z,0.82
2023-04-10T15:42:51.456Z,0.70
2023-04-10T15:45:18.685Z,0.82
2023-04-10T15:47:48.657Z,0.90
2023-04-10T15:50:15.829Z,0.63
2023-04-10T15:52:42.844Z,0.93
2023-04-10T15:55:09.888Z,0.70
2023-04-10T15:57:36.860Z,0.90
2023-04-10T16:00:04.810Z,0.77
2023-04-10T16:02:32.293Z,0.77
2023-04-10T16:04:59.465Z,1.10
2023-04-10T16:07:26.400Z,0.85
2023-04-10T16:09:55.025Z,0.88
2023-04-10T16:12:22.064Z,1.13
2023-04-10T16:14:48.988Z,0.90
2023-04-10T16:17:15.990Z,1.00
2023-04-10T16:19:42.992Z,1.10
2023-04-10T16:22:10.119Z,0.90
2023-04-10T16:24:37.036Z,1.00
2023-04-10T16:27:04.050Z,0.95
2023-04-10T16:29:31.033Z,1.00
2023-04-10T16:31:58.009Z,0.85
2023-04-10T16:34:24.959Z,0.90
2023-04-10T16:36:51.885Z,0.93
2023-04-10T16:39:18.841Z,0.95
2023-04-10T16:41:45.852Z,1.05
2023-04-10T16:44:12.827Z,1.00
2023-04-10T16:46:39.854Z,0.80
2023-04-10T16:49:06.803Z,1.42
2023-04-10T16:51:33.726Z,1.10
2023-04-10T16:54:00.642Z,0.93
2023-04-10T16:56:27.603Z,1.50
2023-04-10T16:58:54.829Z,1.20
2023-04-10T17:01:25.171Z,1.15
2023-04-10T17:03:53.392Z,1.20
2023-04-10T17:06:20.684Z,1.17
2023-04-10T17:08:47.786Z,1.40
2023-04-10T17:11:14.851Z,1.40
2023-04-10T17:13:42.210Z,1.45
2023-04-10T17:16:09.468Z,1.50
2023-04-10T17:18:36.807Z,3.30
2023-04-10T17:21:04.119Z,3.55
2023-04-10T17:23:31.137Z,2.97
2023-04-10T17:25:58.112Z,2.20
2023-04-10T17:28:25.090Z,1.75
2023-04-10T17:30:52.035Z,1.65
2023-04-10T17:33:19.169Z,1.40
2023-04-10T17:35:46.080Z,1.52
2023-04-10T17:38:13.286Z,1.60
2023-04-10T17:40:41.077Z,2.00
2023-04-10T17:43:08.487Z,1.80
2023-04-10T17:45:39.682Z,1.45
2023-04-10T17:48:07.338Z,1.52
2023-04-10T17:50:34.953Z,1.50
2023-04-10T17:53:02.198Z,1.30
2023-04-10T17:55:29.137Z,1.55
2023-04-10T17:57:58.254Z,1.38
2023-04-10T18:00:25.258Z,2.05
2023-04-10T18:02:57.966Z,2.20
2023-04-10T18:05:25.435Z,2.50
2023-04-10T18:07:52.432Z,3.47
2023-04-10T18:10:19.553Z,4.00
2023-04-10T18:12:46.549Z,4.10
2023-04-10T18:15:16.692Z,4.57
2023-04-10T18:17:43.703Z,3.63
2023-04-10T18:20:11.055Z,2.47
2023-04-10T18:22:37.994Z,2.20
2023-04-10T18:25:05.667Z,6.75
2023-04-10T18:27:34.663Z,5.53
2023-04-10T18:30:02.191Z,3.17
2023-04-10T18:32:29.294Z,2.70
2023-04-10T18:34:56.264Z,2.55
2023-04-10T18:37:23.213Z,2.30
2023-04-10T18:39:50.134Z,2.58
2023-04-10T18:42:17.189Z,2.95
2023-04-10T18:44:44.127Z,2.10
2023-04-10T18:47:11.227Z,1.60
2023-04-10T18:49:38.318Z,1.40
2023-04-10T18:52:05.462Z,1.45
2023-04-10T18:54:34.501Z,1.70
2023-04-10T18:57:01.973Z,1.55
2023-04-10T18:59:28.916Z,1.70
2023-04-10T19:01:55.908Z,1.70
2023-04-10T19:04:23.098Z,1.70
2023-04-10T19:06:51.210Z,1.80
2023-04-10T19:09:18.478Z,2.05
2023-04-10T19:11:45.524Z,1.80
2023-04-10T19:14:12.498Z,1.77
2023-04-10T19:16:39.400Z,2.17
2023-04-10T19:19:06.325Z,2.20
2023-04-10T19:21:35.987Z,1.88
2023-04-10T19:24:03.067Z,1.90
2023-04-10T19:26:30.081Z,1.88
2023-04-10T19:28:58.996Z,2.08
2023-04-10T19:31:28.770Z,2.33
2023-04-10T19:33:56.083Z,2.53
2023-04-10T19:36:23.102Z,2.05
2023-04-10T19:38:51.152Z,2.58
2023-04-10T19:41:18.426Z,2.50
2023-04-10T19:43:45.535Z,2.42
2023-04-10T19:46:17.644Z,2.63
2023-04-10T19:48:45.466Z,2.50
2023-04-10T19:51:13.188Z,2.40
2023-04-10T19:53:41.272Z,2.20
2023-04-10T19:56:08.467Z,2.03
2023-04-10T19:58:40.005Z,2.38
2023-04-10T20:01:12.257Z,2.30
2023-04-10T20:03:39.562Z,1.80
2023-04-10T20:06:07.921Z,2.00
2023-04-10T20:08:35.753Z,1.75
2023-04-10T20:11:05.984Z,1.75
2023-04-10T20:13:34.416Z,1.77
2023-04-10T20:16:01.638Z,1.83
2023-04-10T20:18:31.345Z,2.85
2023-04-10T20:20:58.306Z,2.53
2023-04-10T20:23:25.250Z,1.90
2023-04-10T20:25:52.257Z,2.00
2023-04-10T20:28:19.408Z,1.80
2023-04-10T20:30:46.350Z,1.60
2023-04-10T20:33:13.336Z,1.83
2023-04-10T20:35:40.517Z,1.75
2023-04-10T20:38:07.603Z,1.60
2023-04-10T20:40:37.453Z,1.80
2023-04-10T20:43:10.795Z,1.33
2023-04-10T20:45:38.844Z,1.52
2023-04-10T20:48:06.427Z,1.70
2023-04-10T20:50:33.561Z,1.70
2023-04-10T20:53:00.533Z,1.70
2023-04-10T20:55:27.542Z,1.92
2023-04-10T20:57:54.573Z,1.90
2023-04-10T21:00:21.660Z,1.60
2023-04-10T21:02:48.800Z,1.92
2023-04-10T21:05:15.928Z,1.80
2023-04-10T21:07:43.004Z,1.73
2023-04-10T21:10:10.327Z,1.65
2023-04-10T21:12:37.405Z,1.73
2023-04-10T21:15:04.741Z,1.60
2023-04-10T21:17:32.223Z,2.00
2023-04-10T21:19:59.591Z,1.80
2023-04-10T21:22:29.052Z,1.70
2023-04-10T21:24:56.448Z,1.80
2023-04-10T21:27:23.900Z,1.85
2023-04-10T21:29:50.905Z,1.50
2023-04-10T21:32:18.011Z,1.60
2023-04-10T21:34:44.987Z,1.80
2023-04-10T21:37:12.012Z,1.42
2023-04-10T21:39:42.030Z,1.70
2023-04-10T21:42:08.980Z,1.40
2023-04-10T21:44:35.987Z,1.63
2023-04-10T21:47:03.026Z,1.70
2023-04-10T21:49:30.003Z,1.48
2023-04-10T21:51:59.027Z,1.52
2023-04-10T21:54:26.025Z,1.48
2023-04-10T21:56:53.004Z,1.73
2023-04-10T21:59:19.996Z,1.42
2023-04-10T22:01:47.063Z,1.80
2023-04-10T22:04:14.275Z,1.05
2023-04-10T22:06:41.363Z,1.48
2023-04-10T22:09:08.332Z,1.48
2023-04-10T22:11:35.943Z,1.30
2023-04-10T22:14:13.070Z,1.52
2023-04-10T22:16:44.411Z,1.30
2023-04-10T22:19:11.458Z,1.42
2023-04-10T22:21:38.407Z,1.30
2023-04-10T22:24:06.137Z,1.27
2023-04-10T22:26:35.009Z,1.15
2023-04-10T22:29:03.945Z,1.13
2023-04-10T22:31:31.043Z,1.00
2023-04-10T22:33:58.009Z,1.08
2023-04-10T22:36:30.597Z,1.27
2023-04-10T22:38:57.540Z,1.10
2023-04-10T22:41:24.516Z,1.20
2023-04-10T22:43:51.589Z,1.05
2023-04-10T22:46:18.695Z,1.08
2023-04-10T22:48:46.916Z,0.98
2023-04-10T22:51:14.882Z,1.20
2023-04-10T22:53:41.891Z,1.30
2023-04-10T22:56:10.510Z,1.05
2023-04-10T22:58:39.323Z,1.20
2023-04-10T23:01:08.113Z,1.05
2023-04-10T23:03:35.643Z,1.00
2023-04-10T23:06:02.904Z,1.05
2023-04-10T23:08:29.818Z,1.20
2023-04-10T23:10:56.894Z,1.05
2023-04-10T23:13:23.860Z,1.10
2023-04-10T23:15:52.416Z,1.08
2023-04-10T23:18:19.583Z,0.98
2023-04-10T23:20:47.664Z,1.10
2023-04-10T23:23:15.504Z,0.93
2023-04-10T23:25:42.853Z,1.10
2023-04-10T23:28:09.803Z,0.80
2023-04-10T23:30:37.173Z,1.13
2023-04-10T23:33:04.380Z,1.30
2023-04-10T23:35:31.380Z,1.55
2023-04-10T23:37:58.315Z,1.15
2023-04-10T23:40:25.295Z,1.10
2023-04-10T23:42:52.259Z,1.38
2023-04-10T23:45:19.311Z,1.02
2023-04-10T23:47:47.300Z,1.10
2023-04-10T23:50:15.228Z,1.17
2023-04-10T23:52:42.217Z,1.35
2023-04-10T23:55:09.490Z,1.15
2023-04-10T23:57:36.430Z,1.10
